sensor_id;sensor_type;location;lat;lon;timestamp;pressure;altitude;pressure_sealevel;temperature;humidity
78888;BME280;68276;49.326;8.690;2023-03-14T00:02:22;98559.31;;;10.35;86.18
78888;BME280;68276;49.326;8.690;2023-03-14T00:04:47;98565.41;;;10.43;84.23
78888;BME280;68276;49.326;8.690;2023-03-14T00:07:13;98567.09;;;10.55;82.47
78888;BME280;68276;49.326;8.690;2023-03-14T00:09:38;98566.34;;;10.66;81.42
78888;BME280;68276;49.326;8.690;2023-03-14T00:12:04;98567.47;;;10.59;82.11
78888;BME280;68276;49.326;8.690;2023-03-14T00:14:31;98559.41;;;10.59;81.52
78888;BME280;68276;49.326;8.690;2023-03-14T00:16:56;98565.38;;;10.61;82.03
78888;BME280;68276;49.326;8.690;2023-03-14T00:19:22;98564.09;;;10.63;82.30
78888;BME280;68276;49.326;8.690;2023-03-14T00:21:47;98563.53;;;10.61;82.01
78888;BME280;68276;49.326;8.690;2023-03-14T00:24:13;98572.78;;;10.77;81.13
78888;BME280;68276;49.326;8.690;2023-03-14T00:26:39;98560.50;;;10.69;82.16
78888;BME280;68276;49.326;8.690;2023-03-14T00:29:04;98555.72;;;10.71;80.79
78888;BME280;68276;49.326;8.690;2023-03-14T00:31:29;98552.81;;;10.73;80.74
78888;BME280;68276;49.326;8.690;2023-03-14T00:33:55;98559.25;;;10.72;81.85
78888;BME280;68276;49.326;8.690;2023-03-14T00:36:20;98553.88;;;10.72;80.79
78888;BME280;68276;49.326;8.690;2023-03-14T00:38:48;98542.91;;;10.85;80.04
78888;BME280;68276;49.326;8.690;2023-03-14T00:41:18;98545.25;;;10.81;80.86
78888;BME280;68276;49.326;8.690;2023-03-14T00:43:44;98537.88;;;10.77;81.01
78888;BME280;68276;49.326;8.690;2023-03-14T00:46:10;98538.59;;;10.84;80.85
78888;BME280;68276;49.326;8.690;2023-03-14T00:48:35;98523.19;;;10.91;80.05
78888;BME280;68276;49.326;8.690;2023-03-14T00:51:02;98527.84;;;10.84;80.64
78888;BME280;68276;49.326;8.690;2023-03-14T00:53:27;98540.22;;;10.85;80.07
78888;BME280;68276;49.326;8.690;2023-03-14T00:55:52;98532.28;;;10.78;80.01
78888;BME280;68276;49.326;8.690;2023-03-14T00:58:18;98535.06;;;10.72;80.82
78888;BME280;68276;49.326;8.690;2023-03-14T01:00:44;98542.53;;;10.70;80.44
78888;BME280;68276;49.326;8.690;2023-03-14T01:03:11;98541.34;;;10.66;82.31
78888;BME280;68276;49.326;8.690;2023-03-14T01:05:37;98535.75;;;10.79;80.81
78888;BME280;68276;49.326;8.690;2023-03-14T01:08:03;98543.81;;;10.79;81.11
78888;BME280;68276;49.326;8.690;2023-03-14T01:10:28;98550.59;;;10.81;81.50
78888;BME280;68276;49.326;8.690;2023-03-14T01:12:54;98549.91;;;10.86;80.67
78888;BME280;68276;49.326;8.690;2023-03-14T01:15:20;98543.03;;;10.90;80.84
78888;BME280;68276;49.326;8.690;2023-03-14T01:17:46;98534.78;;;11.03;79.83
78888;BME280;68276;49.326;8.690;2023-03-14T01:20:13;98532.81;;;11.10;79.08
78888;BME280;68276;49.326;8.690;2023-03-14T01:22:40;98539.91;;;11.16;78.66
78888;BME280;68276;49.326;8.690;2023-03-14T01:25:06;98525.56;;;11.22;78.72
78888;BME280;68276;49.326;8.690;2023-03-14T01:27:32;98516.09;;;11.19;79.50
78888;BME280;68276;49.326;8.690;2023-03-14T01:29:58;98514.91;;;11.15;79.89
78888;BME280;68276;49.326;8.690;2023-03-14T01:32:24;98513.06;;;11.04;81.15
78888;BME280;68276;49.326;8.690;2023-03-14T01:34:50;98513.13;;;10.98;81.48
78888;BME280;68276;49.326;8.690;2023-03-14T01:37:15;98506.38;;;10.95;82.07
78888;BME280;68276;49.326;8.690;2023-03-14T01:39:41;98489.09;;;11.03;80.82
78888;BME280;68276;49.326;8.690;2023-03-14T01:42:06;98494.56;;;10.96;80.88
78888;BME280;68276;49.326;8.690;2023-03-14T01:44:51;98486.97;;;11.05;80.14
78888;BME280;68276;49.326;8.690;2023-03-14T01:47:16;98489.91;;;11.03;80.73
78888;BME280;68276;49.326;8.690;2023-03-14T01:49:42;98483.13;;;11.01;80.88
78888;BME280;68276;49.326;8.690;2023-03-14T01:52:16;98483.38;;;10.99;80.90
78888;BME280;68276;49.326;8.690;2023-03-14T01:54:53;98479.06;;;11.10;78.84
78888;BME280;68276;49.326;8.690;2023-03-14T01:57:33;98463.25;;;11.13;78.82
78888;BME280;68276;49.326;8.690;2023-03-14T02:00:07;98449.50;;;11.10;79.14
78888;BME280;68276;49.326;8.690;2023-03-14T02:02:37;98438.25;;;11.01;79.65
78888;BME280;68276;49.326;8.690;2023-03-14T02:05:05;98431.97;;;10.96;80.02
78888;BME280;68276;49.326;8.690;2023-03-14T02:10:01;98431.50;;;10.87;81.21
78888;BME280;68276;49.326;8.690;2023-03-14T02:12:27;98431.28;;;10.89;80.84
78888;BME280;68276;49.326;8.690;2023-03-14T02:14:53;98436.06;;;10.87;80.31
78888;BME280;68276;49.326;8.690;2023-03-14T02:17:19;98442.94;;;10.83;80.01
78888;BME280;68276;49.326;8.690;2023-03-14T02:22:37;98444.00;;;10.82;80.22
78888;BME280;68276;49.326;8.690;2023-03-14T02:27:32;98434.63;;;10.73;81.03
78888;BME280;68276;49.326;8.690;2023-03-14T02:30:06;98455.53;;;10.71;81.65
78888;BME280;68276;49.326;8.690;2023-03-14T02:32:34;98432.44;;;10.70;81.63
78888;BME280;68276;49.326;8.690;2023-03-14T02:35:06;98432.31;;;10.65;82.42
78888;BME280;68276;49.326;8.690;2023-03-14T02:37:38;98418.75;;;10.60;83.13
78888;BME280;68276;49.326;8.690;2023-03-14T02:40:06;98393.66;;;10.54;83.31
78888;BME280;68276;49.326;8.690;2023-03-14T02:42:31;98415.00;;;10.61;82.94
78888;BME280;68276;49.326;8.690;2023-03-14T02:47:53;98427.59;;;10.49;83.85
78888;BME280;68276;49.326;8.690;2023-03-14T02:50:22;98430.53;;;10.47;83.18
78888;BME280;68276;49.326;8.690;2023-03-14T02:52:49;98421.16;;;10.50;83.79
78888;BME280;68276;49.326;8.690;2023-03-14T02:55:19;98415.94;;;10.55;82.26
78888;BME280;68276;49.326;8.690;2023-03-14T02:57:44;98407.44;;;10.58;82.62
78888;BME280;68276;49.326;8.690;2023-03-14T03:00:10;98401.13;;;10.52;83.00
78888;BME280;68276;49.326;8.690;2023-03-14T03:02:36;98403.69;;;10.47;83.33
78888;BME280;68276;49.326;8.690;2023-03-14T03:05:01;98402.75;;;10.53;82.62
78888;BME280;68276;49.326;8.690;2023-03-14T03:07:27;98403.09;;;10.45;83.62
78888;BME280;68276;49.326;8.690;2023-03-14T03:09:52;98409.72;;;10.43;83.08
78888;BME280;68276;49.326;8.690;2023-03-14T03:12:17;98409.00;;;10.35;83.61
78888;BME280;68276;49.326;8.690;2023-03-14T03:14:43;98398.88;;;10.37;82.68
78888;BME280;68276;49.326;8.690;2023-03-14T03:17:09;98400.06;;;10.53;81.42
78888;BME280;68276;49.326;8.690;2023-03-14T03:19:34;98391.63;;;10.50;81.11
78888;BME280;68276;49.326;8.690;2023-03-14T03:22:00;98387.31;;;10.37;81.95
78888;BME280;68276;49.326;8.690;2023-03-14T03:24:26;98377.31;;;10.44;81.61
78888;BME280;68276;49.326;8.690;2023-03-14T03:26:52;98357.56;;;10.38;81.41
78888;BME280;68276;49.326;8.690;2023-03-14T03:29:17;98371.59;;;10.41;81.30
78888;BME280;68276;49.326;8.690;2023-03-14T03:31:42;98363.06;;;10.44;80.88
78888;BME280;68276;49.326;8.690;2023-03-14T03:34:11;98355.69;;;10.39;81.10
78888;BME280;68276;49.326;8.690;2023-03-14T03:36:36;98348.81;;;10.43;80.99
78888;BME280;68276;49.326;8.690;2023-03-14T03:39:02;98344.47;;;10.30;81.96
78888;BME280;68276;49.326;8.690;2023-03-14T03:41:28;98347.28;;;10.24;82.22
78888;BME280;68276;49.326;8.690;2023-03-14T03:43:55;98339.69;;;10.32;81.19
78888;BME280;68276;49.326;8.690;2023-03-14T03:46:21;98337.94;;;10.26;80.87
78888;BME280;68276;49.326;8.690;2023-03-14T03:48:46;98338.97;;;10.25;80.85
78888;BME280;68276;49.326;8.690;2023-03-14T03:51:13;98337.47;;;10.29;80.47
78888;BME280;68276;49.326;8.690;2023-03-14T03:53:39;98332.13;;;10.29;80.42
78888;BME280;68276;49.326;8.690;2023-03-14T03:56:05;98332.34;;;10.28;79.66
78888;BME280;68276;49.326;8.690;2023-03-14T03:58:30;98327.53;;;10.18;80.87
78888;BME280;68276;49.326;8.690;2023-03-14T04:00:56;98333.97;;;10.17;80.06
78888;BME280;68276;49.326;8.690;2023-03-14T04:03:21;98332.22;;;10.23;79.80
78888;BME280;68276;49.326;8.690;2023-03-14T04:05:46;98338.66;;;10.33;78.67
78888;BME280;68276;49.326;8.690;2023-03-14T04:08:22;98337.59;;;10.34;77.80
78888;BME280;68276;49.326;8.690;2023-03-14T04:10:47;98334.91;;;10.34;77.92
78888;BME280;68276;49.326;8.690;2023-03-14T04:13:13;98327.44;;;10.36;77.74
78888;BME280;68276;49.326;8.690;2023-03-14T04:15:38;98329.91;;;10.38;77.99
78888;BME280;68276;49.326;8.690;2023-03-14T04:18:03;98328.97;;;10.32;78.08
78888;BME280;68276;49.326;8.690;2023-03-14T04:20:29;98325.00;;;10.35;77.30
78888;BME280;68276;49.326;8.690;2023-03-14T04:22:54;98324.88;;;10.42;77.02
78888;BME280;68276;49.326;8.690;2023-03-14T04:25:19;98320.69;;;10.46;76.55
78888;BME280;68276;49.326;8.690;2023-03-14T04:27:46;98322.19;;;10.42;76.37
78888;BME280;68276;49.326;8.690;2023-03-14T04:30:11;98324.41;;;10.45;75.58
78888;BME280;68276;49.326;8.690;2023-03-14T04:32:39;98320.56;;;10.52;74.76
78888;BME280;68276;49.326;8.690;2023-03-14T04:35:04;98320.34;;;10.54;75.01
78888;BME280;68276;49.326;8.690;2023-03-14T04:37:30;98317.28;;;10.50;75.06
78888;BME280;68276;49.326;8.690;2023-03-14T04:39:55;98317.06;;;10.52;75.36
78888;BME280;68276;49.326;8.690;2023-03-14T04:42:21;98306.09;;;10.53;73.94
78888;BME280;68276;49.326;8.690;2023-03-14T04:44:46;98314.97;;;10.54;73.52
78888;BME280;68276;49.326;8.690;2023-03-14T04:47:14;98293.84;;;10.46;74.64
78888;BME280;68276;49.326;8.690;2023-03-14T04:49:39;98283.44;;;10.37;74.88
78888;BME280;68276;49.326;8.690;2023-03-14T04:52:05;98283.22;;;10.39;74.23
78888;BME280;68276;49.326;8.690;2023-03-14T04:54:30;98286.34;;;10.48;72.52
78888;BME280;68276;49.326;8.690;2023-03-14T04:56:56;98285.22;;;10.44;73.17
78888;BME280;68276;49.326;8.690;2023-03-14T04:59:21;98287.44;;;10.35;73.49
78888;BME280;68276;49.326;8.690;2023-03-14T05:01:46;98294.78;;;10.28;73.59
78888;BME280;68276;49.326;8.690;2023-03-14T05:04:13;98291.38;;;10.32;73.87
78888;BME280;68276;49.326;8.690;2023-03-14T05:06:39;98286.25;;;10.31;74.09
78888;BME280;68276;49.326;8.690;2023-03-14T05:09:04;98278.31;;;10.36;73.62
78888;BME280;68276;49.326;8.690;2023-03-14T05:11:30;98278.66;;;10.39;72.77
78888;BME280;68276;49.326;8.690;2023-03-14T05:13:55;98280.09;;;10.42;72.27
78888;BME280;68276;49.326;8.690;2023-03-14T05:16:21;98268.03;;;10.45;72.24
78888;BME280;68276;49.326;8.690;2023-03-14T05:18:46;98283.47;;;10.49;72.42
78888;BME280;68276;49.326;8.690;2023-03-14T05:21:11;98282.63;;;10.49;71.70
78888;BME280;68276;49.326;8.690;2023-03-14T05:23:37;98287.19;;;10.48;71.92
78888;BME280;68276;49.326;8.690;2023-03-14T05:26:02;98290.22;;;10.52;72.00
78888;BME280;68276;49.326;8.690;2023-03-14T05:28:28;98288.00;;;10.49;71.90
78888;BME280;68276;49.326;8.690;2023-03-14T05:30:53;98293.03;;;10.45;72.05
78888;BME280;68276;49.326;8.690;2023-03-14T05:33:19;98302.47;;;10.48;72.11
78888;BME280;68276;49.326;8.690;2023-03-14T05:35:44;98312.06;;;10.44;72.57
78888;BME280;68276;49.326;8.690;2023-03-14T05:38:09;98295.38;;;10.42;72.46
78888;BME280;68276;49.326;8.690;2023-03-14T05:40:35;98290.69;;;10.49;72.54
78888;BME280;68276;49.326;8.690;2023-03-14T05:43:01;98290.09;;;10.47;72.20
78888;BME280;68276;49.326;8.690;2023-03-14T05:45:26;98287.06;;;10.55;71.65
78888;BME280;68276;49.326;8.690;2023-03-14T05:47:52;98286.34;;;10.48;72.54
78888;BME280;68276;49.326;8.690;2023-03-14T05:50:17;98280.19;;;10.47;72.51
78888;BME280;68276;49.326;8.690;2023-03-14T05:52:43;98270.84;;;10.50;71.77
78888;BME280;68276;49.326;8.690;2023-03-14T05:55:08;98268.50;;;10.53;70.97
78888;BME280;68276;49.326;8.690;2023-03-14T05:57:34;98274.22;;;10.57;70.66
78888;BME280;68276;49.326;8.690;2023-03-14T05:59:59;98256.84;;;10.59;71.12
78888;BME280;68276;49.326;8.690;2023-03-14T06:02:24;98258.69;;;10.59;71.55
78888;BME280;68276;49.326;8.690;2023-03-14T06:04:50;98258.47;;;10.60;71.30
78888;BME280;68276;49.326;8.690;2023-03-14T06:07:15;98251.69;;;10.58;71.34
78888;BME280;68276;49.326;8.690;2023-03-14T06:09:40;98261.59;;;10.69;70.04
78888;BME280;68276;49.326;8.690;2023-03-14T06:12:06;98259.97;;;10.68;70.91
78888;BME280;68276;49.326;8.690;2023-03-14T06:14:31;98257.72;;;10.76;69.79
78888;BME280;68276;49.326;8.690;2023-03-14T06:16:57;98256.81;;;10.71;71.30
78888;BME280;68276;49.326;8.690;2023-03-14T06:19:24;98264.03;;;10.70;70.79
78888;BME280;68276;49.326;8.690;2023-03-14T06:21:50;98255.53;;;10.73;70.36
78888;BME280;68276;49.326;8.690;2023-03-14T06:24:15;98263.81;;;10.72;70.29
78888;BME280;68276;49.326;8.690;2023-03-14T06:26:40;98268.63;;;10.70;70.29
78888;BME280;68276;49.326;8.690;2023-03-14T06:29:06;98263.59;;;10.73;70.19
78888;BME280;68276;49.326;8.690;2023-03-14T06:31:32;98268.97;;;10.73;70.85
78888;BME280;68276;49.326;8.690;2023-03-14T06:33:58;98266.03;;;10.75;70.44
78888;BME280;68276;49.326;8.690;2023-03-14T06:36:24;98259.00;;;10.74;70.80
78888;BME280;68276;49.326;8.690;2023-03-14T06:38:49;98259.59;;;10.76;70.40
78888;BME280;68276;49.326;8.690;2023-03-14T06:41:15;98261.00;;;10.78;70.38
78888;BME280;68276;49.326;8.690;2023-03-14T06:43:40;98256.56;;;10.84;69.83
78888;BME280;68276;49.326;8.690;2023-03-14T06:46:06;98258.78;;;10.87;69.78
78888;BME280;68276;49.326;8.690;2023-03-14T06:48:31;98262.50;;;10.86;70.04
78888;BME280;68276;49.326;8.690;2023-03-14T06:50:57;98257.47;;;10.89;69.15
78888;BME280;68276;49.326;8.690;2023-03-14T06:53:22;98262.63;;;10.91;69.96
78888;BME280;68276;49.326;8.690;2023-03-14T06:55:47;98261.44;;;10.87;70.42
78888;BME280;68276;49.326;8.690;2023-03-14T06:58:13;98256.19;;;10.92;69.84
78888;BME280;68276;49.326;8.690;2023-03-14T07:00:38;98260.63;;;10.86;69.53
78888;BME280;68276;49.326;8.690;2023-03-14T07:03:04;98251.28;;;10.89;69.99
78888;BME280;68276;49.326;8.690;2023-03-14T07:05:29;98255.50;;;10.85;70.14
78888;BME280;68276;49.326;8.690;2023-03-14T07:07:55;98260.53;;;10.81;70.99
78888;BME280;68276;49.326;8.690;2023-03-14T07:10:21;98251.28;;;10.89;70.82
78888;BME280;68276;49.326;8.690;2023-03-14T07:12:46;98256.31;;;10.85;70.95
78888;BME280;68276;49.326;8.690;2023-03-14T07:15:11;98252.72;;;10.80;69.88
78888;BME280;68276;49.326;8.690;2023-03-14T07:17:37;98263.34;;;10.75;70.63
78888;BME280;68276;49.326;8.690;2023-03-14T07:20:03;98261.69;;;10.74;71.81
78888;BME280;68276;49.326;8.690;2023-03-14T07:22:34;98267.06;;;10.74;71.14
78888;BME280;68276;49.326;8.690;2023-03-14T07:24:59;98276.44;;;10.71;71.12
78888;BME280;68276;49.326;8.690;2023-03-14T07:27:25;98270.72;;;10.68;70.83
78888;BME280;68276;49.326;8.690;2023-03-14T07:29:50;98258.91;;;10.69;71.32
78888;BME280;68276;49.326;8.690;2023-03-14T07:32:16;98277.59;;;10.75;71.19
78888;BME280;68276;49.326;8.690;2023-03-14T07:34:41;98268.94;;;10.85;70.95
78888;BME280;68276;49.326;8.690;2023-03-14T07:37:07;98262.97;;;10.83;69.63
78888;BME280;68276;49.326;8.690;2023-03-14T07:39:33;98265.31;;;10.91;70.25
78888;BME280;68276;49.326;8.690;2023-03-14T07:41:59;98264.00;;;10.93;71.02
78888;BME280;68276;49.326;8.690;2023-03-14T07:44:24;98265.59;;;11.06;69.67
78888;BME280;68276;49.326;8.690;2023-03-14T07:46:50;98268.16;;;11.12;69.45
78888;BME280;68276;49.326;8.690;2023-03-14T07:49:15;98260.72;;;11.03;69.66
78888;BME280;68276;49.326;8.690;2023-03-14T07:51:41;98271.31;;;11.09;69.50
78888;BME280;68276;49.326;8.690;2023-03-14T07:54:06;98269.31;;;11.16;69.24
78888;BME280;68276;49.326;8.690;2023-03-14T07:56:32;98264.19;;;11.15;69.34
78888;BME280;68276;49.326;8.690;2023-03-14T07:58:58;98264.72;;;11.17;69.47
78888;BME280;68276;49.326;8.690;2023-03-14T08:01:23;98266.63;;;11.16;69.25
78888;BME280;68276;49.326;8.690;2023-03-14T08:03:49;98273.28;;;11.14;68.92
78888;BME280;68276;49.326;8.690;2023-03-14T08:06:14;98270.44;;;11.20;69.04
78888;BME280;68276;49.326;8.690;2023-03-14T08:08:39;98275.81;;;11.20;69.54
78888;BME280;68276;49.326;8.690;2023-03-14T08:11:06;98276.66;;;11.21;69.39
78888;BME280;68276;49.326;8.690;2023-03-14T08:13:36;98280.25;;;11.26;69.77
78888;BME280;68276;49.326;8.690;2023-03-14T08:16:02;98279.63;;;11.36;69.97
78888;BME280;68276;49.326;8.690;2023-03-14T08:18:27;98279.50;;;11.42;69.76
78888;BME280;68276;49.326;8.690;2023-03-14T08:20:53;98278.09;;;11.40;69.35
78888;BME280;68276;49.326;8.690;2023-03-14T08:23:18;98283.56;;;11.45;68.10
78888;BME280;68276;49.326;8.690;2023-03-14T08:25:44;98277.25;;;11.51;68.64
78888;BME280;68276;49.326;8.690;2023-03-14T08:28:09;98273.72;;;11.50;67.97
78888;BME280;68276;49.326;8.690;2023-03-14T08:30:34;98278.03;;;11.51;67.83
78888;BME280;68276;49.326;8.690;2023-03-14T08:33:00;98284.56;;;11.55;67.64
78888;BME280;68276;49.326;8.690;2023-03-14T08:35:26;98296.31;;;11.49;67.24
78888;BME280;68276;49.326;8.690;2023-03-14T08:37:52;98290.09;;;11.49;68.06
78888;BME280;68276;49.326;8.690;2023-03-14T08:40:18;98283.75;;;11.55;68.11
78888;BME280;68276;49.326;8.690;2023-03-14T08:42:45;98290.63;;;11.63;68.40
78888;BME280;68276;49.326;8.690;2023-03-14T08:45:12;98293.66;;;11.66;69.30
78888;BME280;68276;49.326;8.690;2023-03-14T08:47:38;98296.22;;;11.73;68.46
78888;BME280;68276;49.326;8.690;2023-03-14T08:50:05;98298.34;;;11.87;68.53
78888;BME280;68276;49.326;8.690;2023-03-14T08:52:31;98299.56;;;11.80;67.94
78888;BME280;68276;49.326;8.690;2023-03-14T08:54:57;98307.44;;;11.70;68.46
78888;BME280;68276;49.326;8.690;2023-03-14T08:57:23;98319.75;;;11.66;68.94
78888;BME280;68276;49.326;8.690;2023-03-14T08:59:55;98317.88;;;11.66;69.21
78888;BME280;68276;49.326;8.690;2023-03-14T09:02:22;98321.72;;;11.58;69.93
78888;BME280;68276;49.326;8.690;2023-03-14T09:04:50;98334.28;;;11.53;70.33
78888;BME280;68276;49.326;8.690;2023-03-14T09:07:15;98328.31;;;11.51;70.89
78888;BME280;68276;49.326;8.690;2023-03-14T09:09:41;98329.38;;;11.50;70.68
78888;BME280;68276;49.326;8.690;2023-03-14T09:12:06;98341.34;;;11.31;71.83
78888;BME280;68276;49.326;8.690;2023-03-14T09:14:32;98336.69;;;11.26;72.09
78888;BME280;68276;49.326;8.690;2023-03-14T09:16:57;98328.84;;;11.36;71.91
78888;BME280;68276;49.326;8.690;2023-03-14T09:19:23;98340.16;;;11.38;72.03
78888;BME280;68276;49.326;8.690;2023-03-14T09:21:48;98336.28;;;11.46;72.57
78888;BME280;68276;49.326;8.690;2023-03-14T09:24:14;98336.56;;;11.33;72.99
78888;BME280;68276;49.326;8.690;2023-03-14T09:26:40;98340.47;;;11.14;75.01
78888;BME280;68276;49.326;8.690;2023-03-14T09:29:05;98346.91;;;11.01;75.29
78888;BME280;68276;49.326;8.690;2023-03-14T09:31:30;98331.72;;;11.07;75.35
78888;BME280;68276;49.326;8.690;2023-03-14T09:33:56;98338.56;;;11.26;75.24
78888;BME280;68276;49.326;8.690;2023-03-14T09:36:21;98330.69;;;11.36;73.19
78888;BME280;68276;49.326;8.690;2023-03-14T09:38:47;98336.84;;;11.48;72.44
78888;BME280;68276;49.326;8.690;2023-03-14T09:41:21;98330.28;;;11.55;72.34
78888;BME280;68276;49.326;8.690;2023-03-14T09:43:57;98325.88;;;11.49;73.24
78888;BME280;68276;49.326;8.690;2023-03-14T09:46:26;98326.19;;;11.65;72.05
78888;BME280;68276;49.326;8.690;2023-03-14T09:48:52;98330.53;;;11.54;72.33
78888;BME280;68276;49.326;8.690;2023-03-14T09:51:20;98326.09;;;11.48;71.91
78888;BME280;68276;49.326;8.690;2023-03-14T09:53:49;98328.00;;;11.47;71.81
78888;BME280;68276;49.326;8.690;2023-03-14T09:56:20;98316.78;;;11.79;70.98
78888;BME280;68276;49.326;8.690;2023-03-14T09:58:51;98327.53;;;11.95;70.54
78888;BME280;68276;49.326;8.690;2023-03-14T10:01:24;98327.38;;;12.02;69.60
78888;BME280;68276;49.326;8.690;2023-03-14T10:03:50;98329.13;;;11.91;69.57
78888;BME280;68276;49.326;8.690;2023-03-14T10:06:19;98331.13;;;11.84;69.22
78888;BME280;68276;49.326;8.690;2023-03-14T10:08:44;98320.72;;;11.88;69.49
78888;BME280;68276;49.326;8.690;2023-03-14T10:11:16;98330.94;;;11.74;70.26
78888;BME280;68276;49.326;8.690;2023-03-14T10:14:11;98353.28;;;11.75;70.87
78888;BME280;68276;49.326;8.690;2023-03-14T10:16:45;98345.59;;;11.55;71.62
78888;BME280;68276;49.326;8.690;2023-03-14T10:19:13;98343.88;;;11.49;77.00
78888;BME280;68276;49.326;8.690;2023-03-14T10:21:44;98345.88;;;11.42;73.06
78888;BME280;68276;49.326;8.690;2023-03-14T10:26:53;98344.78;;;11.66;74.46
78888;BME280;68276;49.326;8.690;2023-03-14T10:29:20;98350.59;;;11.63;74.31
78888;BME280;68276;49.326;8.690;2023-03-14T10:32:00;98348.63;;;11.58;74.39
78888;BME280;68276;49.326;8.690;2023-03-14T10:34:32;98341.88;;;11.56;74.66
78888;BME280;68276;49.326;8.690;2023-03-14T10:37:06;98344.72;;;11.38;74.95
78888;BME280;68276;49.326;8.690;2023-03-14T10:39:45;98330.00;;;11.29;74.95
78888;BME280;68276;49.326;8.690;2023-03-14T10:42:34;98339.97;;;11.17;75.88
78888;BME280;68276;49.326;8.690;2023-03-14T10:45:09;98338.06;;;11.29;75.89
78888;BME280;68276;49.326;8.690;2023-03-14T10:47:51;98336.06;;;11.08;76.40
78888;BME280;68276;49.326;8.690;2023-03-14T10:50:27;98339.31;;;11.10;77.43
78888;BME280;68276;49.326;8.690;2023-03-14T10:52:53;98346.75;;;11.19;78.71
78888;BME280;68276;49.326;8.690;2023-03-14T10:55:19;98331.03;;;11.11;78.05
78888;BME280;68276;49.326;8.690;2023-03-14T10:57:45;98336.25;;;11.18;76.67
78888;BME280;68276;49.326;8.690;2023-03-14T11:00:16;98343.16;;;11.14;76.72
78888;BME280;68276;49.326;8.690;2023-03-14T11:02:53;98352.16;;;10.96;78.68
78888;BME280;68276;49.326;8.690;2023-03-14T11:05:30;98349.81;;;11.00;79.92
78888;BME280;68276;49.326;8.690;2023-03-14T11:08:02;98354.28;;;10.83;79.01
78888;BME280;68276;49.326;8.690;2023-03-14T11:10:37;98348.91;;;10.83;80.31
78888;BME280;68276;49.326;8.690;2023-03-14T11:13:09;98355.13;;;10.83;81.42
78888;BME280;68276;49.326;8.690;2023-03-14T11:16:06;98360.63;;;10.77;80.54
78888;BME280;68276;49.326;8.690;2023-03-14T11:18:59;98358.63;;;10.72;81.61
78888;BME280;68276;49.326;8.690;2023-03-14T11:21:42;98361.88;;;10.51;81.74
78888;BME280;68276;49.326;8.690;2023-03-14T11:27:21;98362.47;;;10.53;84.08
78888;BME280;68276;49.326;8.690;2023-03-14T11:30:17;98374.16;;;10.47;84.35
78888;BME280;68276;49.326;8.690;2023-03-14T11:35:28;98379.59;;;10.29;84.58
78888;BME280;68276;49.326;8.690;2023-03-14T11:38:05;98386.16;;;10.33;85.25
78888;BME280;68276;49.326;8.690;2023-03-14T11:40:46;98385.31;;;10.32;85.35
78888;BME280;68276;49.326;8.690;2023-03-14T11:43:32;98389.06;;;10.31;85.58
78888;BME280;68276;49.326;8.690;2023-03-14T11:51:02;98416.25;;;10.35;85.88
78888;BME280;68276;49.326;8.690;2023-03-14T11:53:55;98415.66;;;10.21;85.04
78888;BME280;68276;49.326;8.690;2023-03-14T11:58:57;98464.09;;;10.26;81.63
78888;BME280;68276;49.326;8.690;2023-03-14T12:01:29;98457.41;;;10.17;78.63
78888;BME280;68276;49.326;8.690;2023-03-14T12:04:20;98504.78;;;10.05;77.63
78888;BME280;68276;49.326;8.690;2023-03-14T12:06:49;98480.66;;;10.05;77.65
78888;BME280;68276;49.326;8.690;2023-03-14T12:09:16;98520.53;;;10.02;76.62
78888;BME280;68276;49.326;8.690;2023-03-14T12:14:33;98531.47;;;10.00;75.49
78888;BME280;68276;49.326;8.690;2023-03-14T12:20:05;98545.50;;;10.02;75.63
78888;BME280;68276;49.326;8.690;2023-03-14T12:22:52;98551.06;;;9.83;74.52
78888;BME280;68276;49.326;8.690;2023-03-14T12:25:20;98568.56;;;9.85;75.98
78888;BME280;68276;49.326;8.690;2023-03-14T12:28:16;98581.03;;;9.80;75.59
78888;BME280;68276;49.326;8.690;2023-03-14T12:30:43;98595.84;;;9.64;75.54
78888;BME280;68276;49.326;8.690;2023-03-14T12:35:39;98598.94;;;9.61;76.32
78888;BME280;68276;49.326;8.690;2023-03-14T12:38:09;98608.81;;;9.43;74.93
78888;BME280;68276;49.326;8.690;2023-03-14T12:40:53;98609.25;;;9.40;75.45
78888;BME280;68276;49.326;8.690;2023-03-14T12:43:28;98630.41;;;9.23;76.18
78888;BME280;68276;49.326;8.690;2023-03-14T12:48:39;98684.53;;;9.00;76.67
78888;BME280;68276;49.326;8.690;2023-03-14T12:51:12;98657.47;;;8.84;76.96
78888;BME280;68276;49.326;8.690;2023-03-14T12:56:40;98677.75;;;8.67;76.08
78888;BME280;68276;49.326;8.690;2023-03-14T13:02:01;98702.28;;;8.64;73.41
78888;BME280;68276;49.326;8.690;2023-03-14T13:04:45;98706.53;;;8.78;70.92
78888;BME280;68276;49.326;8.690;2023-03-14T13:07:28;98714.78;;;9.07;69.47
78888;BME280;68276;49.326;8.690;2023-03-14T13:10:02;98725.31;;;9.65;66.65
78888;BME280;68276;49.326;8.690;2023-03-14T13:12:37;98731.31;;;9.91;64.01
78888;BME280;68276;49.326;8.690;2023-03-14T13:15:11;98731.09;;;10.17;63.07
78888;BME280;68276;49.326;8.690;2023-03-14T13:17:40;98756.75;;;10.31;61.48
78888;BME280;68276;49.326;8.690;2023-03-14T13:20:16;98751.25;;;10.26;61.50
78888;BME280;68276;49.326;8.690;2023-03-14T13:22:48;98767.50;;;10.31;60.30
78888;BME280;68276;49.326;8.690;2023-03-14T13:25:14;98804.41;;;10.11;60.55
78888;BME280;68276;49.326;8.690;2023-03-14T13:27:42;98787.63;;;9.91;60.28
78888;BME280;68276;49.326;8.690;2023-03-14T13:32:43;98779.09;;;9.76;59.45
78888;BME280;68276;49.326;8.690;2023-03-14T13:35:28;98782.94;;;9.87;59.98
78888;BME280;68276;49.326;8.690;2023-03-14T13:38:01;98813.13;;;9.76;59.94
78888;BME280;68276;49.326;8.690;2023-03-14T13:40:32;98822.69;;;9.65;60.15
78888;BME280;68276;49.326;8.690;2023-03-14T13:43:51;98809.66;;;9.69;60.79
78888;BME280;68276;49.326;8.690;2023-03-14T13:45:54;98829.09;;;9.58;57.32
78888;BME280;68276;49.326;8.690;2023-03-14T13:48:22;98833.06;;;9.55;55.16
78888;BME280;68276;49.326;8.690;2023-03-14T13:51:16;98856.97;;;9.57;55.48
78888;BME280;68276;49.326;8.690;2023-03-14T13:53:50;98859.78;;;9.68;55.45